SBSR

Details ICAO SBSR (SJP)
Name SAO JOSE DO RIO PRETO
Region Brazil
Timezone America/Sao_Paulo (UTC-2.0)
Plans Departing 28
Arriving 37
Stats Elevation 1,784 ft / 544 m (AMSL)
Location -20.816565° -49.406510°
Runways 1
Magnetic Variation 20.481° W
Sunrise 2017-12-17 08:33:25 UTC / 2017-12-17 06:33:25 Local
Sunset 2017-12-17 21:56:56 UTC / 2017-12-17 19:56:56 Local
Advertisement - Login to hide

Runways

ID Width Length Bearing (true) Bearing (mag) Surface Threshold Offset Overrun Length
07 115 ft / 35 m 5,373 ft / 1,638 m 51.42° 71.90° Asphalt 0 ft / 0 m 0 ft / 0 m
25 115 ft / 35 m 5,373 ft / 1,638 m 231.42° 251.90° Asphalt 0 ft / 0 m 0 ft / 0 m

Map

Weather


0- 5 10 15 20 25 30 35+ Temperature / ° C

Clouds and Precipitation
Forecast for 2017-12-17 06:00 UTC. Updated an hour ago

Ground ~20,000 ft ~40,000 ft Winds

METAR

SBSR 170300Z 12004KT CAVOK 26/18 Q1014

TAF

Not found

Frequencies

Tower 130.85 MHz RDO
Warning: Do not use this data for real-world aviation or navigation. No guarantee of current accuracy is given.